Time;durP1;ratioP1;P1;durP2;ratioP2;P2;SDS_P1;SDS_P2;PMS_P1;PMS_P2;Temp;Humidity;BMP_temperature;BMP_pressure;BME280_temperature;BME280_humidity;BME280_pressure;Samples;Min_cycle;Max_cycle;Signal;HPM_P1;HPM_P2
2022/12/08 00:01:19;;;;;;;13.43;8.32;;;;;;;7.64;65.19;101088.44;5058173;28;20136;-72
2022/12/08 00:03:48;;;;;;;11.77;8.68;;;;;;;7.61;64.53;101081.63;5048782;28;20037;-73
2022/12/08 00:09:24;;;;;;;11.82;8.90;;;;;;;7.60;64.44;101081.81;5054211;28;20068;-72
2022/12/08 00:11:54;;;;;;;11.85;8.65;;;;;;;7.56;64.61;101072.53;5060065;28;20562;-74
2022/12/08 00:14:27;;;;;;;11.32;8.70;;;;;;;7.49;64.68;101051.09;5055572;28;20060;-73
2022/12/08 00:16:56;;;;;;;11.68;8.50;;;;;;;7.58;65.10;101059.78;5067250;28;20132;-72
2022/12/08 00:19:25;;;;;;;16.83;9.55;;;;;;;7.59;64.85;101048.91;5055714;28;20229;-72
2022/12/08 00:21:54;;;;;;;13.57;8.23;;;;;;;7.58;65.00;101041.91;5052227;28;20131;-72
2022/12/08 00:24:24;;;;;;;13.25;9.32;;;;;;;7.57;65.28;101053.63;5064476;28;20037;-74
2022/12/08 00:26:52;;;;;;;13.05;9.90;;;;;;;7.56;65.26;101046.63;5061106;28;20076;-72
2022/12/08 00:29:20;;;;;;;13.43;8.77;;;;;;;7.54;64.47;101046.00;5062705;28;20111;-72
2022/12/08 00:31:48;;;;;;;12.65;9.38;;;;;;;7.54;64.79;101039.81;5065424;28;20051;-72
2022/12/08 00:34:16;;;;;;;16.95;9.77;;;;;;;7.55;64.59;101044.16;5064616;28;20484;-71
2022/12/08 00:36:44;;;;;;;13.55;10.52;;;;;;;7.53;64.98;101039.00;5058617;28;20060;-72
2022/12/08 00:39:13;;;;;;;16.80;11.40;;;;;;;7.52;64.94;101040.00;5055955;28;20477;-72
2022/12/08 00:44:28;;;;;;;15.10;11.32;;;;;;;7.51;65.00;101038.38;5066200;28;20112;-72
2022/12/08 00:46:55;;;;;;;17.63;13.77;;;;;;;7.51;65.44;101038.38;5062117;28;20041;-73
2022/12/08 00:49:24;;;;;;;18.92;12.02;;;;;;;7.49;65.04;101035.88;5062494;28;20059;-73
2022/12/08 00:51:52;;;;;;;17.40;12.50;;;;;;;7.48;65.04;101036.91;5054697;28;20220;-73
2022/12/08 00:54:21;;;;;;;15.82;12.00;;;;;;;7.48;65.34;101022.72;5066421;28;20072;-73
2022/12/08 00:56:50;;;;;;;20.17;11.50;;;;;;;7.48;65.33;101028.06;5064767;28;20072;-72
2022/12/08 00:59:18;;;;;;;18.13;11.57;;;;;;;7.47;65.26;101027.22;5058852;28;20055;-71
2022/12/08 01:01:46;;;;;;;16.95;11.20;;;;;;;7.48;65.27;101030.72;5066483;28;20109;-72
2022/12/08 01:04:16;;;;;;;14.48;10.88;;;;;;;7.48;65.42;101022.72;5064401;28;20402;-71
2022/12/08 01:06:44;;;;;;;13.93;10.82;;;;;;;7.50;64.80;101023.34;5062645;28;20116;-72
2022/12/08 01:09:14;;;;;;;16.73;11.68;;;;;;;7.51;65.08;101016.97;5061074;28;20581;-71
2022/12/08 01:11:43;;;;;;;15.10;10.95;;;;;;;7.51;64.74;101016.97;5060364;28;20120;-71
2022/12/08 01:14:12;;;;;;;17.08;11.30;;;;;;;7.51;65.13;101009.78;5063661;28;20072;-73
2022/12/08 01:16:40;;;;;;;13.80;11.05;;;;;;;7.51;64.39;101007.09;5056976;28;20046;-71
2022/12/08 01:19:10;;;;;;;15.00;11.02;;;;;;;7.41;64.95;100990.59;5056658;28;20532;-69
2022/12/08 01:21:39;;;;;;;14.45;10.23;;;;;;;7.48;65.14;101006.66;5065467;28;20575;-72
2022/12/08 01:24:10;;;;;;;13.35;10.35;;;;;;;7.48;65.26;100998.66;5059260;28;20046;-72
2022/12/08 01:26:38;;;;;;;13.93;9.88;;;;;;;7.47;64.50;101002.34;5059716;28;20068;-72
2022/12/08 01:29:06;;;;;;;13.85;9.43;;;;;;;7.41;65.33;100995.94;5058944;28;20102;-72
2022/12/08 01:31:35;;;;;;;12.75;9.75;;;;;;;7.46;65.00;100998.84;5065948;28;20087;-72
2022/12/08 01:34:03;;;;;;;15.27;10.43;;;;;;;7.41;64.97;100985.25;5061093;28;20415;-70
2022/12/08 01:36:33;;;;;;;14.27;9.73;;;;;;;7.47;64.75;101002.34;5063378;28;20156;-72
2022/12/08 01:39:01;;;;;;;13.40;9.38;;;;;;;7.46;64.78;100998.00;5060478;28;20104;-72
2022/12/08 01:41:33;;;;;;;13.93;9.30;;;;;;;7.47;65.05;101005.00;5057540;28;20480;-70
2022/12/08 01:44:03;;;;;;;12.57;8.65;;;;;;;7.46;65.01;101006.88;5063800;28;20081;-72
2022/12/08 01:46:33;;;;;;;12.80;9.13;;;;;;;7.43;64.80;100999.22;5054298;28;20045;-72
2022/12/08 01:49:07;;;;;;;12.18;9.07;;;;;;;7.43;65.07;100987.72;5060974;28;20053;-73
2022/12/08 01:51:38;;;;;;;13.70;9.75;;;;;;;7.42;65.23;100991.41;5058193;28;20048;-72
2022/12/08 01:54:07;;;;;;;11.77;8.18;;;;;;;7.42;65.47;100994.09;5064367;28;20048;-72
2022/12/08 01:56:40;;;;;;;12.65;9.30;;;;;;;7.38;64.87;100990.16;5064317;28;20116;-72
2022/12/08 01:59:10;;;;;;;12.90;8.20;;;;;;;7.37;65.24;100989.34;5064264;28;20466;-68
2022/12/08 02:01:38;;;;;;;10.65;8.73;;;;;;;7.37;65.56;100986.66;5060483;28;20045;-73
2022/12/08 02:04:09;;;;;;;12.70;8.63;;;;;;;7.37;65.18;100983.16;5059898;28;20041;-68
2022/12/08 02:06:40;;;;;;;11.48;8.38;;;;;;;7.36;65.01;100982.34;5062894;28;20136;-72
2022/12/08 02:09:08;;;;;;;12.45;8.43;;;;;;;7.37;65.42;100983.16;5059138;28;20053;-72
2022/12/08 02:11:36;;;;;;;12.52;8.40;;;;;;;7.37;65.42;100980.47;5057240;28;20053;-72
2022/12/08 02:14:07;;;;;;;12.88;8.40;;;;;;;7.36;65.01;100974.31;5058801;28;20061;-69
2022/12/08 02:16:42;;;;;;;11.77;7.88;;;;;;;7.36;65.89;100976.97;5055606;28;20049;-73
2022/12/08 02:19:36;;;;;;;11.35;7.57;;;;;;;7.34;65.20;100976.34;5062643;28;20088;-71
2022/12/08 02:22:11;;;;;;;10.88;7.53;;;;;;;7.30;65.32;100963.59;5062497;28;20055;-72
2022/12/08 02:24:53;;;;;;;11.20;7.88;;;;;;;7.33;64.96;100966.69;5053679;28;20131;-73
2022/12/08 02:27:33;;;;;;;9.82;7.63;;;;;;;7.33;65.58;100961.34;5050020;28;20053;-73
2022/12/08 02:30:18;;;;;;;9.02;7.40;;;;;;;7.33;65.47;100955.16;5058012;28;20386;-73
2022/12/08 02:33:20;;;;;;;12.85;7.10;;;;;;;7.30;65.23;100948.38;5054905;28;20131;-73
2022/12/08 02:35:56;;;;;;;10.13;6.70;;;;;;;7.30;65.70;100947.53;5062451;28;20045;-72
2022/12/08 02:38:40;;;;;;;10.85;6.40;;;;;;;7.31;66.12;100951.88;5060160;28;20123;-73
2022/12/08 02:41:23;;;;;;;10.80;7.18;;;;;;;7.32;65.16;100950.84;5061055;28;20051;-72
2022/12/08 02:43:55;;;;;;;9.52;6.35;;;;;;;7.30;65.46;100945.69;5054809;28;20071;-72
2022/12/08 02:46:27;;;;;;;7.78;5.95;;;;;;;7.31;65.76;100944.66;5062466;28;20130;-73
2022/12/08 02:48:57;;;;;;;9.68;6.28;;;;;;;7.30;65.22;100936.84;5057913;28;20048;-72
2022/12/08 02:51:26;;;;;;;10.02;6.70;;;;;;;7.25;65.60;100921.41;5064057;28;20063;-72
2022/12/08 02:53:54;;;;;;;8.60;5.90;;;;;;;7.29;65.82;100936.03;5057800;28;20050;-72
2022/12/08 02:56:40;;;;;;;9.70;6.22;;;;;;;7.29;65.06;100937.88;5052952;28;20056;-72
2022/12/08 02:59:18;;;;;;;9.63;5.97;;;;;;;7.26;65.60;100928.41;5055468;28;20048;-71
2022/12/08 03:02:06;;;;;;;9.23;5.80;;;;;;;7.29;66.00;100924.50;5055429;28;20109;-73
2022/12/08 03:04:45;;;;;;;8.27;5.70;;;;;;;7.28;65.73;100918.34;5056064;28;20049;-73
2022/12/08 03:07:21;;;;;;;8.77;5.70;;;;;;;7.28;65.54;100917.50;5058568;28;20049;-71
2022/12/08 03:09:54;;;;;;;9.18;5.68;;;;;;;7.28;65.64;100915.66;5059141;28;20071;-72
2022/12/08 03:12:29;;;;;;;6.95;5.38;;;;;;;7.26;65.77;100904.34;5060565;28;20048;-73
2022/12/08 03:15:02;;;;;;;9.10;5.70;;;;;;;7.27;65.87;100913.19;5050248;28;20069;-72
2022/12/08 03:17:31;;;;;;;6.53;5.55;;;;;;;7.28;66.25;100914.84;5053826;28;20113;-73
2022/12/08 03:20:03;;;;;;;8.32;5.95;;;;;;;7.27;65.74;100906.00;5049979;28;21158;-73
2022/12/08 03:22:33;;;;;;;7.25;5.38;;;;;;;7.27;65.98;100906.00;5047581;28;20465;-73
2022/12/08 03:25:01;;;;;;;8.32;5.25;;;;;;;7.27;65.67;100899.81;5060097;28;20045;-73
2022/12/08 03:27:31;;;;;;;7.07;5.10;;;;;;;7.26;66.10;100899.00;5054402;28;20136;-73
2022/12/08 03:30:01;;;;;;;6.47;5.28;;;;;;;7.26;65.93;100900.84;5058055;28;20746;-73
2022/12/08 03:32:35;;;;;;;7.43;5.78;;;;;;;7.26;66.05;100890.97;5057624;28;20045;-73
2022/12/08 03:35:05;;;;;;;8.35;5.97;;;;;;;7.23;66.28;100894.03;5059385;28;20040;-72
2022/12/08 03:37:36;;;;;;;8.23;5.40;;;;;;;7.28;65.93;100894.28;5061920;28;20051;-72
2022/12/08 03:40:06;;;;;;;9.85;6.32;;;;;;;7.27;65.62;100886.44;5061024;28;20083;-73
2022/12/08 03:42:34;;;;;;;11.32;7.82;;;;;;;7.26;66.19;100890.97;5051916;28;20487;-72
2022/12/08 03:45:02;;;;;;;14.40;9.65;;;;;;;7.27;65.63;100883.78;5059847;28;20045;-69
2022/12/08 03:47:30;;;;;;;10.20;7.43;;;;;;;7.28;65.71;100882.75;5055847;28;20052;-74
2022/12/08 03:49:58;;;;;;;13.88;10.43;;;;;;;7.28;65.87;100886.25;5059798;28;20080;-74
2022/12/08 03:52:26;;;;;;;16.33;10.43;;;;;;;7.27;66.11;100875.75;5061820;28;20231;-74
2022/12/08 03:54:55;;;;;;;15.35;11.32;;;;;;;7.25;66.06;100875.97;5060012;28;20083;-73
2022/12/08 03:57:23;;;;;;;15.18;10.07;;;;;;;7.24;65.78;100873.50;5052286;28;20041;-71
2022/12/08 03:59:50;;;;;;;18.17;12.57;;;;;;;7.22;65.95;100871.00;5058783;28;20391;-73
2022/12/08 04:02:18;;;;;;;18.00;12.38;;;;;;;7.22;66.31;100870.19;5054382;28;20040;-72
2022/12/08 04:04:46;;;;;;;15.93;12.05;;;;;;;7.20;66.15;100865.03;5053948;28;20044;-70
2022/12/08 04:07:13;;;;;;;18.10;13.23;;;;;;;7.21;66.31;100863.19;5053782;28;20048;-72
2022/12/08 04:09:41;;;;;;;18.30;13.63;;;;;;;7.21;66.26;100871.22;5061742;28;20132;-73
2022/12/08 04:12:10;;;;;;;21.83;13.80;;;;;;;7.18;66.22;100867.09;5063509;28;20072;-73
2022/12/08 04:14:38;;;;;;;17.15;12.95;;;;;;;7.19;66.35;100866.06;5064008;28;20149;-72
2022/12/08 04:17:06;;;;;;;17.70;13.55;;;;;;;7.19;66.42;100871.41;5057019;28;20052;-72
2022/12/08 04:19:33;;;;;;;19.60;13.25;;;;;;;7.17;66.41;100860.91;5052101;28;20239;-68
2022/12/08 04:22:01;;;;;;;17.02;12.75;;;;;;;7.15;66.20;100868.31;5054885;28;20045;-73
2022/12/08 04:24:29;;;;;;;20.73;14.23;;;;;;;7.15;66.45;100857.63;5052464;28;20158;-72
2022/12/08 04:26:57;;;;;;;17.63;12.77;;;;;;;7.15;66.71;100860.28;5050914;28;20124;-70
2022/12/08 04:29:26;;;;;;;18.30;13.18;;;;;;;7.16;66.35;100855.78;5061113;28;20077;-72
2022/12/08 04:31:53;;;;;;;17.23;11.70;;;;;;;7.17;66.80;100857.41;5049830;28;20055;-73
2022/12/08 04:34:21;;;;;;;16.08;12.05;;;;;;;7.16;66.36;100855.78;5061318;28;20076;-72
2022/12/08 04:36:49;;;;;;;19.77;12.77;;;;;;;7.15;65.98;100852.28;5058564;28;20041;-72
2022/12/08 04:39:16;;;;;;;15.38;12.23;;;;;;;7.16;66.50;100853.09;5053173;28;20044;-73
2022/12/08 04:41:44;;;;;;;14.45;11.30;;;;;;;7.14;66.28;100850.63;5059808;28;20049;-70
2022/12/08 04:44:12;;;;;;;16.55;11.45;;;;;;;7.15;66.51;100854.13;5058239;28;20120;-73
2022/12/08 04:46:41;;;;;;;14.65;10.57;;;;;;;7.14;66.71;100847.13;5057985;28;20040;-73
2022/12/08 04:49:10;;;;;;;16.17;10.35;;;;;;;7.14;66.50;100837.25;5056400;28;20456;-72
2022/12/08 04:51:38;;;;;;;15.48;10.98;;;;;;;7.14;66.30;100833.78;5059628;28;20049;-72
2022/12/08 04:54:06;;;;;;;12.23;9.70;;;;;;;7.13;66.54;100827.59;5057622;28;20053;-71
2022/12/08 04:56:33;;;;;;;13.55;10.20;;;;;;;7.14;66.28;100833.78;5060329;28;20104;-73
2022/12/08 04:59:01;;;;;;;13.70;9.73;;;;;;;7.14;66.10;100839.94;5057207;28;20059;-73
2022/12/08 05:01:29;;;;;;;13.82;9.68;;;;;;;7.13;66.23;100840.13;5061338;28;20057;-73
2022/12/08 05:03:58;;;;;;;14.55;9.40;;;;;;;7.11;66.82;100836.84;5050106;28;20071;-72
2022/12/08 05:06:26;;;;;;;13.77;9.65;;;;;;;7.13;66.53;100840.13;5058379;28;20053;-71
2022/12/08 05:08:53;;;;;;;14.15;8.35;;;;;;;7.12;66.76;100850.00;5062457;28;20053;-73
2022/12/08 05:11:21;;;;;;;14.48;8.23;;;;;;;7.08;66.75;100838.06;5063684;28;20056;-71
2022/12/08 05:13:49;;;;;;;10.82;8.00;;;;;;;7.13;66.31;100848.97;5059674;28;20073;-72
2022/12/08 05:16:17;;;;;;;15.48;7.38;;;;;;;7.12;66.19;100835.81;5060879;28;20113;-73
2022/12/08 05:18:44;;;;;;;12.73;7.00;;;;;;;7.12;66.33;100841.16;5053253;28;20134;-73
2022/12/08 05:21:13;;;;;;;9.80;7.10;;;;;;;7.02;66.75;100817.47;5059605;28;20144;-74
2022/12/08 05:23:41;;;;;;;12.48;7.28;;;;;;;7.11;66.23;100836.84;5056449;28;20055;-73
2022/12/08 05:26:09;;;;;;;10.50;7.35;;;;;;;7.10;66.48;100841.34;5060308;28;20073;-73
2022/12/08 05:28:37;;;;;;;10.65;8.25;;;;;;;7.11;66.23;100839.50;5058328;28;20091;-68
2022/12/08 05:31:10;;;;;;;9.10;6.55;;;;;;;7.10;66.48;100832.50;5057067;28;20068;-72
2022/12/08 05:33:38;;;;;;;9.77;7.25;;;;;;;7.10;66.29;100832.50;5063847;28;20049;-71
2022/12/08 05:36:06;;;;;;;12.38;7.65;;;;;;;7.12;66.60;100817.94;5057381;28;20065;-73
2022/12/08 05:38:35;;;;;;;10.75;6.28;;;;;;;7.13;65.93;100826.78;5066302;28;20041;-72
2022/12/08 05:41:03;;;;;;;10.85;6.85;;;;;;;7.13;66.26;100834.78;5061653;28;20049;-72
2022/12/08 05:43:31;;;;;;;10.57;6.50;;;;;;;7.12;65.74;100825.13;5060778;28;20049;-71
2022/12/08 05:45:59;;;;;;;12.48;6.15;;;;;;;7.12;66.47;100822.44;5061564;28;20055;-72
2022/12/08 05:48:27;;;;;;;7.65;5.68;;;;;;;7.11;66.06;100823.47;5066696;28;20056;-72
2022/12/08 05:50:55;;;;;;;8.50;6.05;;;;;;;7.03;66.27;100812.97;5060461;28;20049;-71
2022/12/08 05:53:23;;;;;;;7.63;5.82;;;;;;;7.09;66.43;100820.19;5059448;28;20108;-72
2022/12/08 05:55:52;;;;;;;7.82;5.03;;;;;;;7.10;66.35;100824.50;5058575;28;20076;-72
2022/12/08 05:58:22;;;;;;;6.75;5.13;;;;;;;7.08;65.99;100813.19;5049050;28;20068;-71
2022/12/08 06:00:51;;;;;;;8.45;4.47;;;;;;;7.07;66.53;100811.53;5057117;28;20041;-71
2022/12/08 06:03:19;;;;;;;7.65;4.68;;;;;;;7.11;66.00;100813.63;5051643;28;20144;-73
2022/12/08 06:05:47;;;;;;;5.45;3.47;;;;;;;7.24;65.30;100814.69;5054689;28;20462;-71
2022/12/08 06:08:16;;;;;;;5.75;3.60;;;;;;;7.37;65.32;100807.53;5063374;28;20219;-73
2022/12/08 06:10:45;;;;;;;4.78;3.38;;;;;;;7.58;64.46;100800.38;5062638;28;20126;-73
2022/12/08 06:13:15;;;;;;;6.22;4.00;;;;;;;7.61;63.63;100781.25;5061686;28;20063;-74
2022/12/08 06:15:43;;;;;;;8.02;3.83;;;;;;;7.71;63.68;100800.38;5063764;28;20045;-76
2022/12/08 06:18:11;;;;;;;6.55;3.60;;;;;;;7.70;63.87;100799.56;5058385;28;20067;-72
2022/12/08 06:20:39;;;;;;;8.25;3.42;;;;;;;7.67;63.79;100797.31;5054523;28;20056;-73
2022/12/08 06:23:07;;;;;;;5.32;3.45;;;;;;;7.62;63.79;100802.44;5053355;28;20074;-72
2022/12/08 06:25:34;;;;;;;7.15;4.95;;;;;;;7.55;64.22;100798.94;5055770;28;20045;-68
2022/12/08 06:28:04;;;;;;;7.18;3.67;;;;;;;7.46;64.65;100790.28;5059814;28;20160;-75
2022/12/08 06:30:34;;;;;;;7.05;4.00;;;;;;;7.45;65.07;100795.81;5054024;28;20356;-73
2022/12/08 06:33:02;;;;;;;6.82;5.03;;;;;;;7.41;65.32;100792.72;5064737;28;20072;-69
2022/12/08 06:35:29;;;;;;;8.88;5.65;;;;;;;7.38;65.38;100789.63;5058417;28;20052;-72
2022/12/08 06:37:57;;;;;;;8.68;5.07;;;;;;;7.26;65.20;100769.88;5062943;28;20545;-71
2022/12/08 06:40:25;;;;;;;8.82;5.97;;;;;;;7.30;65.26;100777.28;5064116;28;20060;-72
2022/12/08 06:42:52;;;;;;;7.60;5.13;;;;;;;7.25;65.54;100776.25;5058463;28;20127;-71
2022/12/08 06:45:20;;;;;;;9.35;6.00;;;;;;;7.24;65.29;100779.94;5064520;28;20108;-68
2022/12/08 06:47:49;;;;;;;8.10;5.78;;;;;;;7.26;65.37;100780.56;5059573;28;20109;-70
2022/12/08 06:50:17;;;;;;;12.60;6.85;;;;;;;7.23;65.20;100788.97;5060848;28;20053;-71
2022/12/08 06:52:45;;;;;;;11.07;7.93;;;;;;;7.21;65.58;100783.00;5054927;28;20104;-70
2022/12/08 06:55:36;;;;;;;14.71;7.18;;;;;;;7.19;65.84;100788.56;4684468;28;10001529;-68
2022/12/08 06:58:24;;;;;;;14.50;8.45;;;;;;;7.16;65.84;100784.44;5057379;28;20274;-69
2022/12/08 07:00:52;;;;;;;14.73;9.10;;;;;;;7.19;65.77;100797.41;5059892;28;20053;-75
2022/12/08 07:03:21;;;;;;;13.13;8.48;;;;;;;7.31;65.32;100792.28;5070632;28;20057;-72
2022/12/08 07:05:49;;;;;;;12.05;8.23;;;;;;;7.46;64.69;100797.47;5059599;28;20112;-71
2022/12/08 07:08:17;;;;;;;10.93;7.95;;;;;;;7.63;64.09;100795.25;5059565;28;20068;-70
2022/12/08 07:10:44;;;;;;;11.75;8.07;;;;;;;7.77;63.21;100794.22;5046255;28;20063;-71
2022/12/08 07:13:12;;;;;;;11.75;8.32;;;;;;;7.95;62.44;100805.13;5058406;28;20064;-71
2022/12/08 07:15:40;;;;;;;11.50;8.20;;;;;;;8.08;62.64;100799.78;5060451;28;20051;-64
2022/12/08 07:18:07;;;;;;;13.65;9.90;;;;;;;8.05;62.64;100802.06;5058939;28;20053;-70
2022/12/08 07:20:37;;;;;;;13.57;9.13;;;;;;;8.03;62.71;100806.78;5062715;28;20057;-69
2022/12/08 07:23:05;;;;;;;10.35;8.10;;;;;;;7.99;63.18;100797.53;5058132;28;20117;-67
2022/12/08 07:25:32;;;;;;;11.65;8.52;;;;;;;7.88;63.18;100796.28;5055437;28;20858;-66
2022/12/08 07:28:00;;;;;;;10.38;7.57;;;;;;;7.80;63.00;100802.66;5062142;28;20063;-67
2022/12/08 07:30:28;;;;;;;13.30;9.30;;;;;;;7.71;63.33;100806.56;5060509;28;20069;-64
2022/12/08 07:32:56;;;;;;;11.68;7.88;;;;;;;7.63;64.33;100801.41;5061728;28;20081;-66
2022/12/08 07:35:23;;;;;;;14.30;9.50;;;;;;;7.49;64.10;100795.22;5051547;28;20045;-66
2022/12/08 07:37:52;;;;;;;12.05;8.20;;;;;;;7.50;64.76;100804.88;5047473;28;20101;-66
2022/12/08 07:40:20;;;;;;;14.40;8.07;;;;;;;7.48;64.34;100795.41;5057310;28;20083;-66
2022/12/08 07:42:48;;;;;;;10.48;8.45;;;;;;;7.46;64.55;100800.16;5059399;28;20233;-66
2022/12/08 07:45:16;;;;;;;12.85;7.90;;;;;;;7.42;64.89;100798.91;5056958;28;20113;-67
2022/12/08 07:47:43;;;;;;;13.43;8.20;;;;;;;7.39;64.69;100804.66;5058728;28;20132;-67
2022/12/08 07:50:11;;;;;;;12.25;7.82;;;;;;;7.36;65.15;100797.03;5053369;28;20064;-66
2022/12/08 07:52:39;;;;;;;11.18;7.80;;;;;;;7.31;64.93;100802.97;5060639;28;20185;-67
2022/12/08 07:55:09;;;;;;;10.32;7.95;;;;;;;7.28;64.98;100794.53;5058012;28;20155;-65
2022/12/08 07:57:37;;;;;;;14.38;7.50;;;;;;;7.27;64.84;100803.59;5057951;28;20140;-66
2022/12/08 08:00:05;;;;;;;12.00;8.60;;;;;;;7.24;65.67;100796.78;5060930;28;20080;-67
2022/12/08 08:02:34;;;;;;;15.60;8.25;;;;;;;7.22;65.17;100798.03;5057933;28;20060;-65
2022/12/08 08:05:02;;;;;;;15.15;8.32;;;;;;;7.22;65.21;100811.38;5058494;28;20068;-65
2022/12/08 08:07:31;;;;;;;11.95;7.72;;;;;;;7.18;65.92;100813.63;5062790;28;20136;-67
2022/12/08 08:09:58;;;;;;;13.50;8.18;;;;;;;7.16;65.79;100803.16;5057516;28;20064;-68
2022/12/08 08:12:27;;;;;;;11.20;7.75;;;;;;;7.18;65.42;100805.63;5060517;28;20108;-67
2022/12/08 08:14:59;;;;;;;12.25;7.07;;;;;;;7.18;65.69;100813.63;5061823;28;20057;-68
2022/12/08 08:17:27;;;;;;;10.77;6.82;;;;;;;7.13;65.52;100811.56;5060437;28;20056;-71
2022/12/08 08:19:55;;;;;;;9.57;6.80;;;;;;;7.13;65.68;100808.88;5057591;28;20057;-71
2022/12/08 08:22:24;;;;;;;12.77;7.68;;;;;;;7.14;65.63;100813.22;5061260;28;20053;-69
2022/12/08 08:24:52;;;;;;;12.27;6.90;;;;;;;7.16;65.62;100816.50;5060670;28;20128;-69
2022/12/08 08:27:20;;;;;;;13.55;7.55;;;;;;;7.15;65.37;100814.88;5057062;28;20711;-67
2022/12/08 08:29:49;;;;;;;13.05;6.80;;;;;;;7.11;65.63;100816.28;5059463;28;20041;-69
2022/12/08 08:32:17;;;;;;;12.05;6.70;;;;;;;7.08;65.73;100814.00;5062856;28;20095;-71
2022/12/08 08:34:44;;;;;;;8.95;6.63;;;;;;;7.08;65.70;100810.50;5064680;28;20041;-71
2022/12/08 08:37:12;;;;;;;8.98;6.60;;;;;;;7.08;65.70;100810.50;5063973;28;20061;-71
2022/12/08 08:39:41;;;;;;;10.27;6.93;;;;;;;7.07;65.80;100808.88;5064070;28;20295;-67
2022/12/08 08:42:09;;;;;;;13.40;6.93;;;;;;;7.07;65.92;100807.00;5065471;28;20056;-66
2022/12/08 08:44:37;;;;;;;10.98;7.45;;;;;;;7.08;66.05;100813.19;5063053;28;20048;-67
2022/12/08 08:47:07;;;;;;;12.68;7.88;;;;;;;7.09;65.82;100807.63;5063444;28;20045;-67
2022/12/08 08:49:35;;;;;;;10.93;7.53;;;;;;;7.20;65.11;100808.91;5058098;28;20462;-67
2022/12/08 08:52:03;;;;;;;12.38;6.82;;;;;;;7.38;64.66;100808.34;5065069;28;20049;-67
2022/12/08 08:54:31;;;;;;;10.35;6.85;;;;;;;7.55;63.86;100811.47;5064271;28;20048;-66
2022/12/08 08:57:00;;;;;;;13.93;6.80;;;;;;;7.72;63.73;100810.88;5064247;28;20053;-67
2022/12/08 08:59:28;;;;;;;15.05;8.07;;;;;;;7.90;63.33;100807.59;5061724;28;20041;-69
2022/12/08 09:01:56;;;;;;;12.23;6.97;;;;;;;8.10;62.18;100812.97;5062619;28;20087;-68
2022/12/08 09:04:25;;;;;;;12.98;7.65;;;;;;;8.19;61.80;100802.88;5063680;28;20111;-68
2022/12/08 09:06:53;;;;;;;12.05;7.38;;;;;;;8.29;62.10;100797.91;5062685;28;20064;-67
2022/12/08 09:09:21;;;;;;;12.82;8.55;;;;;;;8.45;61.07;100797.50;5064395;28;20075;-68
2022/12/08 09:11:48;;;;;;;12.55;7.60;;;;;;;8.59;60.85;100798.31;5066082;28;20049;-68
2022/12/08 09:14:16;;;;;;;11.98;6.68;;;;;;;8.71;60.65;100792.06;5061219;28;20144;-67
2022/12/08 09:16:44;;;;;;;12.18;8.00;;;;;;;8.79;60.17;100796.38;5061090;28;20055;-63
2022/12/08 09:19:12;;;;;;;11.45;7.60;;;;;;;8.85;60.07;100803.56;5063443;28;20095;-63
2022/12/08 09:21:41;;;;;;;15.50;8.00;;;;;;;8.83;59.80;100794.91;5063071;28;20063;-66
2022/12/08 09:24:14;;;;;;;16.30;7.40;;;;;;;8.84;60.11;100801.91;5064114;28;20080;-66
2022/12/08 09:26:43;;;;;;;12.05;7.35;;;;;;;8.73;60.02;100814.09;5063323;28;20175;-66
2022/12/08 09:29:12;;;;;;;18.55;8.32;;;;;;;8.53;59.96;100808.00;5061600;28;20059;-67
2022/12/08 09:31:40;;;;;;;17.00;8.00;;;;;;;8.33;60.67;100812.56;5066047;28;20049;-69
2022/12/08 09:34:08;;;;;;;13.65;8.88;;;;;;;8.21;61.58;100812.34;5062854;28;20550;-65
2022/12/08 09:36:36;;;;;;;11.68;8.15;;;;;;;8.10;61.94;100813.78;5064507;28;20045;-69
2022/12/08 09:39:05;;;;;;;15.90;8.85;;;;;;;8.02;62.88;100805.13;5063300;28;20055;-69
2022/12/08 09:41:35;;;;;;;16.02;7.85;;;;;;;7.89;62.47;100802.47;5063276;28;20049;-68
2022/12/08 09:44:39;;;;;;;13.88;8.95;;;;;;;7.86;63.34;100802.88;5059005;28;20432;-68
2022/12/08 09:47:16;;;;;;;14.13;8.57;;;;;;;7.78;63.44;100799.38;5061559;28;20045;-70
2022/12/08 09:49:50;;;;;;;12.45;7.80;;;;;;;7.75;63.87;100796.28;5060926;28;20083;-68
2022/12/08 09:52:23;;;;;;;12.55;8.35;;;;;;;7.69;63.01;100792.56;5065034;28;20056;-68
2022/12/08 09:54:52;;;;;;;12.88;8.75;;;;;;;7.63;63.79;100793.38;5063672;28;20045;-67
2022/12/08 09:57:24;;;;;;;16.63;9.15;;;;;;;7.63;63.68;100795.25;5064288;28;20179;-68
2022/12/08 09:59:57;;;;;;;16.38;8.98;;;;;;;7.59;63.72;100785.97;5060377;28;20056;-68
2022/12/08 10:02:28;;;;;;;15.75;9.93;;;;;;;7.55;63.91;100790.09;5062681;28;20055;-68
2022/12/08 10:04:57;;;;;;;13.30;8.40;;;;;;;7.52;64.16;100783.28;5061802;28;20068;-67
2022/12/08 10:07:34;;;;;;;14.65;9.77;;;;;;;7.49;64.25;100791.72;5059363;28;20095;-67
2022/12/08 10:10:07;;;;;;;;;;;;;;;7.45;64.80;100793.16;5060153;28;20116;-68
2022/12/08 10:12:45;;;;;;;17.08;8.60;;;;;;;7.43;65.17;100789.84;5064277;28;19921;-67
2022/12/08 10:15:29;;;;;;;19.23;10.20;;;;;;;7.41;64.69;100782.03;5059648;28;20059;-67
2022/12/08 10:18:01;;;;;;;15.65;8.23;;;;;;;7.36;64.67;100778.31;5063983;28;20474;-67
2022/12/08 10:20:36;;;;;;;15.70;8.90;;;;;;;7.37;65.16;100779.97;5057512;28;20080;-68
2022/12/08 10:23:09;;;;;;;17.52;8.80;;;;;;;7.34;64.62;100775.03;5050849;28;20056;-67
2022/12/08 10:25:44;;;;;;;17.13;9.77;;;;;;;7.31;64.90;100778.94;5065394;28;20052;-68
2022/12/08 10:28:12;;;;;;;15.02;8.52;;;;;;;7.29;65.45;100775.63;5053950;28;20045;-66
2022/12/08 10:30:40;;;;;;;15.95;8.80;;;;;;;7.28;65.62;100773.16;5056882;28;20079;-68
2022/12/08 10:33:14;;;;;;;12.43;9.00;;;;;;;7.29;64.61;100772.13;5064524;28;20045;-68
2022/12/08 10:35:45;;;;;;;12.45;7.43;;;;;;;7.27;65.30;100771.50;5060192;28;20076;-68
2022/12/08 10:38:21;;;;;;;13.68;8.10;;;;;;;7.26;65.01;100772.53;5061286;28;20041;-67
2022/12/08 10:40:52;;;;;;;;;;;;;;;7.25;65.51;100770.88;5059267;28;20546;-65
2022/12/08 10:43:22;;;;;;;12.07;7.70;;;;;;;7.24;65.50;100770.06;5059609;28;19924;-65
2022/12/08 10:45:51;;;;;;;12.80;7.18;;;;;;;7.22;64.78;100769.44;5062521;28;20143;-66
2022/12/08 10:48:22;;;;;;;12.60;8.30;;;;;;;7.19;65.79;100762.66;5062043;28;20565;-65
2022/12/08 10:50:55;;;;;;;10.85;7.72;;;;;;;7.19;65.31;100765.31;5054875;28;20059;-67
2022/12/08 10:53:25;;;;;;;13.18;8.45;;;;;;;7.19;65.36;100764.50;5063514;28;20104;-66
2022/12/08 10:56:07;;;;;;;14.02;8.13;;;;;;;7.17;65.57;100767.38;5060284;28;20163;-68
2022/12/08 10:58:39;;;;;;;13.60;8.00;;;;;;;7.16;65.69;100767.56;5055983;28;20076;-68
2022/12/08 11:01:12;;;;;;;13.20;7.60;;;;;;;7.14;65.38;100757.09;5056676;28;20044;-72
2022/12/08 11:03:45;;;;;;;18.38;8.32;;;;;;;7.16;65.16;100767.56;5059200;28;20120;-67
2022/12/08 11:06:18;;;;;;;15.77;8.65;;;;;;;7.24;65.29;100759.38;5053674;28;20135;-67
2022/12/08 11:08:50;;;;;;;16.38;7.97;;;;;;;7.39;65.35;100756.53;5063693;28;20491;-68
2022/12/08 11:11:20;;;;;;;13.30;8.20;;;;;;;7.55;64.92;100750.78;5057111;28;20041;-69
2022/12/08 11:13:56;;;;;;;10.77;6.75;;;;;;;7.77;63.62;100746.91;5054342;28;20577;-69
2022/12/08 11:16:24;;;;;;;14.65;7.65;;;;;;;7.94;63.34;100741.94;5057505;28;20081;-70
2022/12/08 11:18:57;;;;;;;12.13;6.78;;;;;;;8.13;62.87;100742.97;5043876;28;20433;-68
2022/12/08 11:21:35;;;;;;;12.75;6.75;;;;;;;8.27;61.84;100725.84;5059391;28;20089;-68
2022/12/08 11:24:22;;;;;;;14.65;7.32;;;;;;;8.45;61.86;100728.69;5050737;28;20045;-68
2022/12/08 11:26:55;;;;;;;12.25;5.97;;;;;;;8.59;61.10;100729.50;5044307;28;20136;-68
2022/12/08 11:29:22;;;;;;;11.63;6.07;;;;;;;8.69;61.10;100724.47;5051960;28;20049;-68
2022/12/08 11:31:54;;;;;;;12.95;7.22;;;;;;;8.85;60.62;100725.03;5062714;28;20053;-69
2022/12/08 11:34:31;;;;;;;9.50;5.85;;;;;;;8.97;59.58;100718.78;5049551;28;20064;-68
2022/12/08 11:36:59;;;;;;;;;;;;;;;9.02;60.27;100716.28;4711367;28;9999738;-68
2022/12/08 11:39:28;;;;;;;9.90;6.35;;;;;;;9.01;59.85;100711.13;5053733;28;20282;-68
2022/12/08 11:41:58;;;;;;;11.95;5.97;;;;;;;8.89;59.54;100691.41;5056337;28;20048;-68
2022/12/08 11:44:35;;;;;;;8.55;5.30;;;;;;;8.84;60.06;100704.63;5054535;28;20049;-68
2022/12/08 11:47:10;;;;;;;10.75;6.13;;;;;;;8.70;60.61;100711.91;5060152;28;20052;-68